PABI/DJN METAR and TAF weather

Enter ICAO airport designator
Station Type Date Time Source
PABI METAR 2020/09/28 07:53 UTC NOAA

PABI 280753Z AUTO 07005KT 10SM BKN035 OVC060 04/03 A2925 RMK AO2 SLP919 T00440028 TSNO


Station Type Date Time Source
PABI Decoded METAR 2020/09/28 07:53 UTC NOAA

ALLEN ARMY AIRFIELD, AK, United States (PABI) 64-00N 145-43W 391M
Sep 28, 2020 - 03:53 AM EDT / 2020.09.28 0753 UTC
Wind: from the ENE (070 degrees) at 6 MPH (5 KT):0
Visibility: 10 mile(s):0
Sky conditions: overcast
Temperature: 39.9 F (4.4 C)
Dew Point: 37.0 F (2.8 C)
Relative Humidity: 89%
Pressure (altimeter): 29.25 in. Hg (990 hPa)
ob: PABI 280753Z AUTO 07005KT 10SM BKN035 OVC060 04/03 A2925 RMK AO2 SLP919 T00440028 TSNO
cycle: 8

Station Type Date Time Source
PABI TAF 2020/09/26 06:47 UTC NOAA

TAF
AMD PABI 260627Z 2606/2712 VRB06KT 9999 OVC026 620304 QNH2940INS
BECMG 2607/2608 VRB06KT 9999 SCT008 BKN012 OVC030 620405 QNH2944INS
BECMG 2620/2621 VRB06KT 9999 BKN015 610402 QNH2954INS
BECMG 2623/2624 VRB06KT 9999 SKC QNH2952INS TX07/2622Z TN02/2613Z LAST NO
AMDS AFT 2606 NEXT 2814 FOR MIL USE ONLY

Example: see airport list